21 Jan 2020 20:05 UTC 2020021+20:05 UTC

Overview Datums Bench Marks Data Query Site Visit Daily QC Messages Attributes

130: GBRA Station #2

28° 24' 26" N   96° 42' 43" W
GBRA2
Guadalupe Blanco River Authority (GBRA) GBRA

Station Information

GBRA Station #2
GBRA Station #2
more pictures
 
Station Name:GBRA Station #2
DNR ID:130
Location:28° 24' 26" N, 96° 42' 43" W

Water Level Forecasts

Latest Observations

Series Metric English Marine Observed at
Water Temperature 16.3 °C 61.3 °F 61.3 °F Jan 21 13:54 CST
00h09m ago
Salinity 20.400 psu 20.400 psu 20.400 psu Jan 21 13:54 CST
00h09m ago

Maps

GBRA Station #2
All Stations in Area
Entire Network
 

Recent Observations

Date/Time Water
Temp (°F)
Sal (psu)
Jan 21 13:00 CST 60.8 20.400
Jan 21 12:00 CST 60.8 20.800
Jan 21 11:00 CST 59.5 20.900
Jan 21 10:00 CST 59.2 20.900
Jan 21 09:00 CST 58.8 21.000
Jan 21 08:00 CST 58.8 20.900
Jan 21 07:00 CST 59.2 21.000
Jan 21 06:00 CST 59.5 21.000
Jan 21 05:00 CST 59.9 20.900
Jan 21 04:00 CST 60.1 21.000
Jan 21 03:00 CST 60.4 21.000
Jan 21 02:00 CST 60.6 21.000
Jan 21 01:00 CST 61.0 21.000
Jan 21 00:00 CST 61.0 20.900
Jan 20 23:00 CST 61.2 19.500
Jan 20 22:00 CST 61.7 17.300
Jan 20 21:00 CST 61.9 19.500
Jan 20 20:00 CST 62.1 20.600
Jan 20 19:00 CST 62.1 20.900
Jan 20 18:00 CST 62.1 20.800
Jan 20 17:00 CST 62.4 18.100
Jan 20 16:00 CST 62.6 17.400
Jan 20 15:00 CST 62.4 18.800
Jan 20 14:00 CST 62.1 20.500

Historical Data Availability